Time;durP1;ratioP1;P1;durP2;ratioP2;P2;SDS_P1;SDS_P2;PMS_P1;PMS_P2;Temp;Humidity;BMP_temperature;BMP_pressure;BME280_temperature;BME280_humidity;BME280_pressure;Samples;Min_cycle;Max_cycle;Signal;HPM_P1;HPM_P2
2021/07/27 00:00:29;;;;;;;12.07;5.40;;;;;;;20.94;87.00;97867.59;5051725;28;20032;-74
2021/07/27 00:02:54;;;;;;;12.25;3.38;;;;;;;20.83;86.86;97865.38;5051773;28;20048;-74
2021/07/27 00:05:20;;;;;;;17.42;4.65;;;;;;;20.81;87.68;97864.97;5050266;28;20120;-74
2021/07/27 00:07:45;;;;;;;9.43;4.13;;;;;;;20.78;88.47;97857.34;5051590;28;20096;-73
2021/07/27 00:10:11;;;;;;;7.55;3.92;;;;;;;20.82;88.21;97860.22;5051468;28;20180;-74
2021/07/27 00:12:36;;;;;;;12.82;4.70;;;;;;;20.79;87.71;97860.94;5050482;28;20029;-74
2021/07/27 00:15:02;;;;;;;7.43;3.63;;;;;;;20.81;87.22;97861.38;5051516;28;20017;-75
2021/07/27 00:17:28;;;;;;;7.30;3.50;;;;;;;20.83;87.52;97836.78;5051626;28;20035;-75
2021/07/27 00:19:56;;;;;;;10.25;3.78;;;;;;;20.94;87.00;97851.72;5051300;28;20009;-73
2021/07/27 00:22:22;;;;;;;8.30;4.20;;;;;;;20.77;86.69;97841.81;5050745;28;20031;-75
2021/07/27 00:24:47;;;;;;;7.80;3.15;;;;;;;20.75;86.94;97846.94;5051315;28;20100;-75
2021/07/27 00:27:12;;;;;;;7.60;4.00;;;;;;;20.75;85.45;97849.72;5050978;28;20021;-74
2021/07/27 00:29:38;;;;;;;11.35;3.55;;;;;;;20.78;85.16;97842.63;5050939;28;20021;-74
2021/07/27 00:32:03;;;;;;;11.05;3.80;;;;;;;20.68;85.56;97845.97;5051054;28;20029;-74
2021/07/27 00:34:29;;;;;;;9.52;3.78;;;;;;;20.78;84.68;97853.75;5050853;28;20116;-76
2021/07/27 00:36:54;;;;;;;9.25;3.58;;;;;;;20.93;84.89;97847.31;5051052;28;20035;-73
2021/07/27 00:39:20;;;;;;;10.93;3.33;;;;;;;20.70;85.03;97846.44;5049692;28;20024;-74
2021/07/27 00:41:45;;;;;;;8.90;3.97;;;;;;;20.61;86.03;97845.84;5050910;28;20098;-73
2021/07/27 00:44:11;;;;;;;8.48;3.30;;;;;;;20.61;85.89;97868.09;5050726;28;20041;-76
2021/07/27 00:46:36;;;;;;;11.55;6.25;;;;;;;20.54;87.33;97870.69;5051464;28;20117;-77
2021/07/27 00:49:02;;;;;;;10.60;4.00;;;;;;;20.51;88.32;97876.97;5050939;28;20508;-73
2021/07/27 00:51:29;;;;;;;11.02;4.45;;;;;;;20.43;89.51;97864.06;5051074;28;20052;-73
2021/07/27 00:53:55;;;;;;;12.60;4.80;;;;;;;20.56;88.83;97862.78;5050951;28;20485;-73
2021/07/27 00:56:21;;;;;;;9.00;4.30;;;;;;;20.50;88.36;97870.63;5050143;28;20099;-74
2021/07/27 00:58:46;;;;;;;9.60;5.20;;;;;;;20.57;87.48;97858.84;5049988;28;20370;-74
2021/07/27 01:01:12;;;;;;;11.93;4.63;;;;;;;20.52;86.61;97861.91;5050322;28;20028;-74
2021/07/27 01:03:38;;;;;;;11.98;4.25;;;;;;;20.47;86.32;97863.00;5050509;28;20119;-73
2021/07/27 01:06:04;;;;;;;17.95;4.07;;;;;;;20.47;86.66;97864.97;5050134;28;20083;-74
2021/07/27 01:08:29;;;;;;;7.15;4.50;;;;;;;20.49;85.88;97862.63;5048668;28;20024;-74
2021/07/27 01:10:55;;;;;;;10.20;4.00;;;;;;;20.80;84.77;97873.66;5049933;28;20389;-74
2021/07/27 01:13:20;;;;;;;10.07;3.47;;;;;;;20.91;82.83;97862.75;5050437;28;20037;-74
2021/07/27 01:15:46;;;;;;;11.82;3.80;;;;;;;21.01;83.30;97873.31;5050322;28;20543;-75
2021/07/27 01:18:17;;;;;;;4.00;3.13;;;;;;;20.96;84.06;97884.72;5050175;28;20159;-73
2021/07/27 01:20:54;;;;;;;7.47;4.32;;;;;;;20.90;84.52;97891.75;5050378;28;20056;-73
2021/07/27 01:37:48;;;;;;;10.98;4.45;;;;;;;21.20;82.21;97888.06;5049885;28;20493;-74
2021/07/27 01:40:17;;;;;;;8.60;3.28;;;;;;;21.20;80.24;97879.72;5048495;28;20028;-73
2021/07/27 01:42:42;;;;;;;8.68;3.30;;;;;;;20.97;80.64;97878.81;5044025;28;20036;-73
2021/07/27 01:45:11;;;;;;;7.05;4.28;;;;;;;20.96;80.08;97888.31;5038473;28;20124;-73
2021/07/27 01:47:37;;;;;;;7.35;3.83;;;;;;;20.83;80.36;97887.63;5028806;28;20128;-73
2021/07/27 01:50:02;;;;;;;11.02;4.22;;;;;;;20.84;80.00;97892.03;5047348;28;20112;-73
2021/07/27 01:52:28;;;;;;;7.78;4.13;;;;;;;20.88;85.26;97883.78;5049711;28;20033;-75
2021/07/27 01:54:55;;;;;;;9.35;4.95;;;;;;;20.77;89.00;97880.75;5049798;28;20033;-73
2021/07/27 01:57:22;;;;;;;11.98;5.25;;;;;;;20.67;91.47;97874.97;5049328;28;20083;-73
2021/07/27 01:59:50;;;;;;;9.70;5.65;;;;;;;20.64;92.49;97876.47;5049539;28;20386;-75
2021/07/27 02:02:16;;;;;;;11.50;5.43;;;;;;;20.61;91.77;97882.75;5030884;28;20033;-73
2021/07/27 02:04:41;;;;;;;12.38;4.90;;;;;;;;;;5029622;28;20025;-74
2021/07/27 02:07:07;;;;;;;9.05;4.40;;;;;;;20.51;93.34;97874.19;5029509;28;20036;-73
2021/07/27 02:09:37;;;;;;;8.93;5.70;;;;;;;20.45;93.53;97873.69;5048629;28;20486;-74
2021/07/27 02:12:02;;;;;;;10.30;4.90;;;;;;;20.40;94.22;97870.34;5047462;28;20481;-73
2021/07/27 02:17:12;;;;;;;10.25;4.45;;;;;;;20.33;95.33;97875.75;5049089;28;20037;-73
2021/07/27 02:19:37;;;;;;;13.68;6.05;;;;;;;20.25;95.30;97870.00;5049322;28;20025;-75
2021/07/27 02:22:04;;;;;;;14.98;4.65;;;;;;;20.46;93.42;97877.25;5049082;28;20025;-74
2021/07/27 02:24:29;;;;;;;10.65;5.28;;;;;;;20.44;92.64;97871.25;5049557;28;20044;-76
2021/07/27 02:26:55;;;;;;;13.32;4.75;;;;;;;20.30;92.59;97872.53;5049180;28;20021;-73
2021/07/27 02:29:20;;;;;;;11.65;4.68;;;;;;;20.41;91.05;97872.78;5048688;28;20036;-73
2021/07/27 02:31:45;;;;;;;11.18;4.03;;;;;;;20.39;90.46;97872.34;5049036;28;20049;-74
2021/07/27 02:34:11;;;;;;;6.47;3.58;;;;;;;20.37;90.34;97868.28;5048571;28;20029;-75
2021/07/27 02:36:36;;;;;;;11.63;5.38;;;;;;;20.29;89.47;97870.13;5048979;28;20039;-74
2021/07/27 02:39:04;;;;;;;7.07;4.35;;;;;;;20.19;91.37;97870.63;5049220;28;20501;-74
2021/07/27 02:41:31;;;;;;;10.32;4.57;;;;;;;20.05;93.76;97870.28;5049095;28;20021;-75
2021/07/27 02:43:57;;;;;;;8.95;4.95;;;;;;;20.01;93.72;97875.75;5048802;28;20034;-75
2021/07/27 02:46:22;;;;;;;12.25;4.55;;;;;;;20.00;93.72;97878.88;5048631;28;20451;-74
2021/07/27 02:48:47;;;;;;;15.10;5.18;;;;;;;20.03;94.20;97887.31;5048383;28;20055;-74
2021/07/27 02:51:13;;;;;;;11.05;6.45;;;;;;;20.26;92.96;97891.09;5049154;28;20032;-74
2021/07/27 02:53:38;;;;;;;10.82;6.25;;;;;;;20.41;92.09;97888.66;5048974;28;20037;-75
2021/07/27 02:56:03;;;;;;;8.57;4.70;;;;;;;20.44;91.54;97901.81;5047950;28;20499;-74
2021/07/27 02:58:30;;;;;;;7.82;4.22;;;;;;;20.29;91.97;97901.50;5050049;28;20420;-74
2021/07/27 03:00:56;;;;;;;9.20;4.78;;;;;;;20.19;92.26;97913.13;5052707;28;20025;-73
2021/07/27 03:03:21;;;;;;;14.35;6.03;;;;;;;20.38;91.74;97922.72;5052610;28;20070;-73
2021/07/27 03:05:47;;;;;;;9.07;4.78;;;;;;;20.48;90.87;97933.28;5052740;28;20025;-74
2021/07/27 03:08:19;;;;;;;7.50;4.78;;;;;;;20.56;90.71;97940.63;5052619;28;20024;-74
2021/07/27 03:10:45;;;;;;;5.78;3.45;;;;;;;20.48;90.75;97945.22;5052768;28;20087;-74
2021/07/27 03:13:10;;;;;;;9.13;4.10;;;;;;;20.50;90.41;97947.63;5051912;28;20553;-74
2021/07/27 03:15:35;;;;;;;9.07;4.47;;;;;;;20.65;89.41;97941.22;5052167;28;20024;-74
2021/07/27 03:18:01;;;;;;;10.82;4.35;;;;;;;20.72;88.56;97945.00;5052155;28;20505;-73
2021/07/27 03:20:28;;;;;;;12.43;4.75;;;;;;;20.62;89.50;97944.72;5051904;28;20104;-74
2021/07/27 03:22:55;;;;;;;10.75;4.82;;;;;;;20.52;89.24;97939.72;5051761;28;20028;-74
2021/07/27 03:25:22;;;;;;;12.15;5.25;;;;;;;20.51;89.70;97935.34;5052407;28;20064;-74
2021/07/27 03:27:49;;;;;;;9.88;4.60;;;;;;;20.57;90.33;97931.13;5052337;28;20064;-75
2021/07/27 03:30:16;;;;;;;11.15;5.20;;;;;;;20.58;90.64;97927.19;5052024;28;20493;-74
2021/07/27 03:32:43;;;;;;;10.05;4.85;;;;;;;20.52;90.69;97923.03;5051915;28;20052;-73
2021/07/27 03:35:11;;;;;;;13.77;6.65;;;;;;;20.62;90.09;97930.84;5051498;28;20013;-74
2021/07/27 03:37:36;;;;;;;11.63;4.95;;;;;;;20.77;89.65;97927.22;5051458;28;20477;-74
2021/07/27 03:40:02;;;;;;;8.07;5.47;;;;;;;20.73;90.43;97923.56;5052219;28;20124;-74
2021/07/27 03:42:28;;;;;;;13.35;6.68;;;;;;;20.78;90.68;97928.81;5051953;28;20466;-75
2021/07/27 03:44:57;;;;;;;15.77;6.93;;;;;;;20.77;92.01;97932.75;5051857;28;20051;-73
2021/07/27 03:47:24;;;;;;;7.57;5.05;;;;;;;20.66;92.76;97928.94;5051302;28;20033;-74
2021/07/27 03:49:49;;;;;;;14.23;7.03;;;;;;;20.78;92.26;97932.41;5051523;28;20035;-74
2021/07/27 03:52:14;;;;;;;16.73;6.28;;;;;;;20.65;92.99;97941.22;5051577;28;20025;-74
2021/07/27 03:54:40;;;;;;;10.88;5.78;;;;;;;20.58;93.41;97944.66;5052053;28;20019;-75
2021/07/27 03:57:05;;;;;;;10.93;6.63;;;;;;;20.59;93.81;97949.03;5051353;28;20033;-74
2021/07/27 03:59:31;;;;;;;14.80;6.47;;;;;;;20.62;93.12;97956.66;5051155;28;20074;-73
2021/07/27 04:01:57;;;;;;;11.95;6.05;;;;;;;20.53;93.48;97947.72;5051293;28;20040;-74
2021/07/27 04:04:22;;;;;;;12.65;5.65;;;;;;;20.48;93.30;97955.53;5051652;28;20041;-74
2021/07/27 04:06:48;;;;;;;11.88;6.18;;;;;;;20.57;92.29;97947.81;5051517;28;20087;-74
2021/07/27 04:09:14;;;;;;;18.08;6.70;;;;;;;20.49;92.06;97935.69;5050052;28;20021;-74
2021/07/27 04:11:40;;;;;;;11.93;5.40;;;;;;;20.54;91.90;97942.97;5049504;28;20044;-73
2021/07/27 04:14:06;;;;;;;11.55;5.13;;;;;;;20.51;92.15;97949.25;5051352;28;20029;-73
2021/07/27 04:16:32;;;;;;;10.10;5.90;;;;;;;20.42;92.64;97951.41;5051592;28;20032;-74
2021/07/27 04:18:57;;;;;;;17.25;7.68;;;;;;;20.39;93.19;97949.34;5051273;28;20029;-74
2021/07/27 04:21:26;;;;;;;11.18;6.38;;;;;;;20.38;93.46;97950.50;5051201;28;20033;-74
2021/07/27 04:23:51;;;;;;;12.57;6.57;;;;;;;20.26;93.97;97943.88;5050546;28;20055;-74
2021/07/27 04:26:16;;;;;;;15.75;6.80;;;;;;;20.17;94.50;97945.97;5051489;28;20076;-74
2021/07/27 04:28:43;;;;;;;16.92;8.95;;;;;;;20.23;93.65;97952.09;5051090;28;20071;-74
2021/07/27 04:31:08;;;;;;;13.18;6.93;;;;;;;20.27;93.81;97947.44;5050926;28;20045;-74
2021/07/27 04:33:33;;;;;;;15.35;7.05;;;;;;;20.33;93.62;97948.00;5050423;28;20516;-74
2021/07/27 04:35:59;;;;;;;15.50;7.57;;;;;;;20.32;93.66;97949.16;5050837;28;20467;-74
2021/07/27 04:38:24;;;;;;;15.90;7.47;;;;;;;20.26;94.65;97948.63;5044601;28;20474;-74
2021/07/27 04:40:54;;;;;;;18.60;7.93;;;;;;;20.26;94.79;97943.88;5032029;28;20138;-74
2021/07/27 04:43:20;;;;;;;15.35;7.85;;;;;;;20.22;94.69;97942.16;5036297;28;20028;-74
2021/07/27 04:45:45;;;;;;;16.08;8.10;;;;;;;20.28;94.28;97944.31;5057314;28;20039;-74
2021/07/27 04:48:11;;;;;;;13.77;7.18;;;;;;;20.26;94.17;97948.63;5051751;28;20031;-74
2021/07/27 04:50:37;;;;;;;15.32;7.28;;;;;;;20.24;94.98;97940.63;5061308;28;20021;-74
2021/07/27 04:53:08;;;;;;;24.20;7.53;;;;;;;20.38;93.80;97944.94;5050322;28;20078;-74
2021/07/27 04:55:34;;;;;;;12.93;7.18;;;;;;;20.74;91.61;97955.75;5058367;28;20105;-73
2021/07/27 04:58:01;;;;;;;14.63;7.50;;;;;;;21.03;90.03;97957.19;5049918;28;20028;-74
2021/07/27 05:00:26;;;;;;;11.55;7.50;;;;;;;21.17;88.35;97954.78;5050395;28;20032;-74
2021/07/27 05:02:52;;;;;;;12.65;7.05;;;;;;;21.19;87.30;97953.22;5050362;28;20025;-74
2021/07/27 05:05:18;;;;;;;19.35;6.40;;;;;;;20.93;88.28;97954.97;5049936;28;20401;-73
2021/07/27 05:07:46;;;;;;;15.40;8.10;;;;;;;21.05;87.86;97949.31;5049913;28;20440;-74
2021/07/27 05:10:12;;;;;;;14.07;6.55;;;;;;;21.43;86.49;97957.69;5048886;28;20032;-74
2021/07/27 05:12:39;;;;;;;13.75;6.95;;;;;;;21.63;85.21;97955.72;5049941;28;20013;-74
2021/07/27 05:15:06;;;;;;;9.88;6.72;;;;;;;21.60;84.21;97956.47;5049937;28;20036;-74
2021/07/27 05:17:32;;;;;;;18.58;6.65;;;;;;;21.73;84.12;97966.28;5050043;28;20397;-73
2021/07/27 05:19:57;;;;;;;21.13;7.00;;;;;;;21.74;82.97;97967.88;5048975;28;20071;-73
2021/07/27 05:22:23;;;;;;;15.35;6.03;;;;;;;21.99;81.92;97971.97;5049524;28;20067;-73
2021/07/27 05:24:50;;;;;;;14.30;6.22;;;;;;;21.94;82.38;97971.47;5049894;28;20053;-72
2021/07/27 05:27:22;;;;;;;14.00;6.18;;;;;;;21.72;83.67;97975.78;5047430;28;20021;-73
2021/07/27 05:29:48;;;;;;;17.15;5.25;;;;;;;21.93;82.46;97970.66;5049317;28;20033;-74
2021/07/27 05:32:13;;;;;;;13.00;6.82;;;;;;;21.86;82.85;97976.09;5047980;28;20025;-74
2021/07/27 05:34:39;;;;;;;7.82;5.60;;;;;;;21.65;83.95;97972.84;5048182;28;20025;-73
2021/07/27 05:37:04;;;;;;;11.20;6.43;;;;;;;21.80;83.37;97978.34;5047787;28;20035;-74
2021/07/27 05:39:30;;;;;;;15.15;7.28;;;;;;;22.19;81.63;97984.69;5047330;28;20025;-73
2021/07/27 05:41:56;;;;;;;14.05;6.75;;;;;;;22.00;82.40;97995.88;5046383;28;20013;-73
2021/07/27 05:44:25;;;;;;;12.98;6.40;;;;;;;21.92;82.61;97999.72;5047936;28;20032;-73
2021/07/27 05:46:54;;;;;;;13.43;6.78;;;;;;;22.17;81.66;98009.34;5047333;28;20044;-75
2021/07/27 05:49:20;;;;;;;11.70;6.55;;;;;;;22.72;79.26;98009.91;5041720;28;20032;-73
2021/07/27 05:51:47;;;;;;;15.32;6.22;;;;;;;22.92;77.87;98014.25;5046903;28;20029;-73
2021/07/27 05:54:12;;;;;;;12.63;6.10;;;;;;;23.15;75.75;98019.78;5039953;28;20029;-73
2021/07/27 05:56:38;;;;;;;11.57;5.20;;;;;;;23.65;73.72;98032.47;5042556;28;20117;-73
2021/07/27 05:59:03;;;;;;;11.70;6.38;;;;;;;23.44;74.18;98022.63;5044866;28;20470;-74
2021/07/27 06:01:29;;;;;;;17.05;5.55;;;;;;;23.05;77.11;98031.59;5045306;28;20029;-72
2021/07/27 06:03:55;;;;;;;10.93;5.13;;;;;;;23.23;76.10;98035.44;5045451;28;20124;-72
2021/07/27 06:06:20;;;;;;;11.18;5.20;;;;;;;23.37;75.68;98022.47;5046761;28;20079;-73
2021/07/27 06:08:46;;;;;;;12.68;5.82;;;;;;;23.48;73.99;98019.88;5046433;28;20051;-73
2021/07/27 06:11:13;;;;;;;14.50;6.57;;;;;;;23.85;72.40;98011.56;5045123;28;20115;-74
2021/07/27 06:13:41;;;;;;;10.48;5.65;;;;;;;24.24;69.99;98020.41;5047519;28;20009;-73
2021/07/27 06:16:07;;;;;;;10.93;5.60;;;;;;;23.90;70.80;98011.25;5043394;28;20468;-73
2021/07/27 06:18:33;;;;;;;23.33;5.90;;;;;;;24.10;69.81;98014.63;5047324;28;20052;-74
2021/07/27 06:20:59;;;;;;;14.27;5.95;;;;;;;23.84;72.60;98012.72;5047484;28;20013;-74
2021/07/27 06:23:25;;;;;;;15.02;5.22;;;;;;;24.18;72.02;98006.00;5045038;28;20393;-75
2021/07/27 06:25:51;;;;;;;11.10;5.35;;;;;;;24.20;71.96;98009.19;5047941;28;20037;-73
2021/07/27 06:28:16;;;;;;;13.32;6.15;;;;;;;23.66;74.11;98017.31;5047495;28;20029;-74
2021/07/27 06:30:42;;;;;;;8.60;5.55;;;;;;;24.07;73.26;98024.59;5047527;28;20045;-73
2021/07/27 06:33:07;;;;;;;14.05;7.32;;;;;;;24.18;72.34;98028.34;5047828;28;20025;-74
2021/07/27 06:35:32;;;;;;;14.00;6.90;;;;;;;24.53;70.76;98014.72;5050974;28;20432;-75
2021/07/27 06:37:58;;;;;;;13.30;6.10;;;;;;;23.91;72.71;98002.44;5051644;28;20083;-74
2021/07/27 06:40:23;;;;;;;15.48;6.43;;;;;;;23.79;74.42;97999.13;5052422;28;20009;-79
2021/07/27 06:42:49;;;;;;;9.93;5.95;;;;;;;23.90;73.42;98009.22;5050918;28;20029;-76
2021/07/27 06:45:15;;;;;;;17.45;6.15;;;;;;;23.92;72.74;98004.06;5050859;28;20028;-77
2021/07/27 06:47:40;;;;;;;11.80;6.88;;;;;;;24.23;72.31;97994.44;5051190;28;20032;-77
2021/07/27 06:50:06;;;;;;;14.50;6.30;;;;;;;24.35;71.78;98001.75;5054486;28;20021;-78
2021/07/27 06:52:32;;;;;;;14.45;6.20;;;;;;;24.50;71.06;98001.50;5053556;28;20094;-80
2021/07/27 06:54:57;;;;;;;13.40;6.60;;;;;;;24.23;71.74;97994.44;5053772;28;20491;-78
2021/07/27 06:57:22;;;;;;;10.25;6.20;;;;;;;24.59;70.38;98000.38;5051852;28;20528;-79
2021/07/27 06:59:48;;;;;;;11.05;6.13;;;;;;;25.06;68.24;98000.38;5053265;28;20055;-77
2021/07/27 07:02:14;;;;;;;10.35;6.40;;;;;;;25.38;66.46;98000.56;5052354;28;20036;-78
2021/07/27 07:04:39;;;;;;;18.05;7.53;;;;;;;25.38;66.49;98001.38;5055045;28;20037;-77
2021/07/27 07:07:08;;;;;;;10.65;5.10;;;;;;;25.34;66.41;98013.78;5057050;28;20040;-78
2021/07/27 07:09:34;;;;;;;11.02;5.88;;;;;;;25.83;64.17;98013.25;5058788;28;20040;-79
2021/07/27 07:12:00;;;;;;;108.82;73.78;;;;;;;25.84;64.31;98006.44;5057271;28;20025;-78
2021/07/27 07:14:25;;;;;;;14.38;7.32;;;;;;;25.66;64.31;97991.53;5053738;28;20052;-78
2021/07/27 07:16:50;;;;;;;22.95;12.02;;;;;;;25.80;63.96;97977.59;5053217;28;20032;-78
2021/07/27 07:19:16;;;;;;;58.13;37.92;;;;;;;25.76;64.52;97973.97;5052658;28;20029;-79
2021/07/27 07:21:41;;;;;;;21.25;12.27;;;;;;;25.66;64.09;97985.94;5054251;28;20125;-78
2021/07/27 07:24:07;;;;;;;19.85;10.68;;;;;;;25.49;64.14;97990.28;5053373;28;20033;-78
2021/07/27 07:26:32;;;;;;;14.00;10.10;;;;;;;25.86;62.88;98001.22;5052598;28;20078;-77
2021/07/27 07:28:57;;;;;;;9.13;5.72;;;;;;;26.31;61.37;98000.59;5056219;28;20071;-76
2021/07/27 07:31:23;;;;;;;12.30;5.70;;;;;;;26.44;60.47;97999.00;5052238;28;20132;-77
2021/07/27 07:33:48;;;;;;;10.32;5.22;;;;;;;26.49;60.53;97998.63;5053656;28;20037;-77
2021/07/27 07:36:14;;;;;;;10.55;5.22;;;;;;;26.49;60.56;98009.03;5053806;28;20484;-78
2021/07/27 07:38:41;;;;;;;16.73;6.57;;;;;;;26.55;60.23;98022.28;5052314;28;20100;-78
2021/07/27 07:41:09;;;;;;;16.27;7.55;;;;;;;26.87;59.12;98029.94;5053448;28;20060;-79
2021/07/27 07:43:35;;;;;;;21.10;12.95;;;;;;;27.54;57.24;98025.06;5052077;28;20040;-77
2021/07/27 07:46:01;;;;;;;14.20;6.00;;;;;;;27.19;57.77;98033.53;5050832;28;20025;-78
2021/07/27 07:48:26;;;;;;;14.48;6.95;;;;;;;27.00;58.85;98033.97;5051499;28;20024;-79
2021/07/27 07:50:52;;;;;;;9.23;4.90;;;;;;;27.30;58.23;98030.72;5053401;28;20079;-79
2021/07/27 07:53:17;;;;;;;11.27;5.35;;;;;;;27.25;58.55;98029.13;5051504;28;20477;-79
2021/07/27 07:55:43;;;;;;;12.07;4.80;;;;;;;27.86;56.60;98041.03;5051566;28;20044;-78
2021/07/27 07:58:08;;;;;;;15.23;5.53;;;;;;;27.74;57.62;98055.53;5051376;28;20032;-78
2021/07/27 08:00:33;;;;;;;17.30;5.63;;;;;;;27.29;58.92;98083.28;5051406;28;20120;-78
2021/07/27 08:03:03;;;;;;;9.85;5.03;;;;;;;26.90;60.95;98090.94;5052733;28;20033;-78
2021/07/27 08:05:28;;;;;;;11.70;5.53;;;;;;;26.29;63.41;98101.19;5047204;28;20079;-78
2021/07/27 08:07:54;;;;;;;11.77;5.63;;;;;;;25.98;64.79;98090.59;5053000;28;20009;-77
2021/07/27 08:10:19;;;;;;;16.88;5.70;;;;;;;25.91;65.39;98094.16;5053136;28;20083;-77
2021/07/27 08:12:47;;;;;;;8.00;5.38;;;;;;;25.48;67.49;98100.69;5050918;28;20029;-77
2021/07/27 08:15:13;;;;;;;7.88;4.93;;;;;;;25.11;69.53;98103.63;5051575;28;20029;-78
2021/07/27 08:17:39;;;;;;;15.18;5.50;;;;;;;25.13;70.37;98098.44;5052096;28;20051;-77
2021/07/27 08:20:05;;;;;;;10.20;5.35;;;;;;;24.94;72.33;98109.84;5051577;28;20469;-77
2021/07/27 08:22:31;;;;;;;14.40;6.38;;;;;;;24.73;73.80;98101.25;5054115;28;20150;-77
2021/07/27 08:24:56;;;;;;;16.35;7.28;;;;;;;24.55;75.86;98103.06;5053074;28;20117;-78
2021/07/27 08:27:22;;;;;;;11.43;6.20;;;;;;;24.35;75.92;98097.66;5051334;28;20120;-77
2021/07/27 08:29:47;;;;;;;13.40;6.80;;;;;;;24.13;79.52;98086.59;5051338;28;20041;-78
2021/07/27 08:32:13;;;;;;;11.73;6.10;;;;;;;23.98;78.60;98080.00;5051029;28;20388;-78
2021/07/27 08:34:41;;;;;;;9.35;6.32;;;;;;;24.04;80.82;98061.69;5051454;28;20035;-78
2021/07/27 08:37:08;;;;;;;12.23;7.78;;;;;;;24.17;82.55;98060.28;5052523;28;20504;-77
2021/07/27 08:39:33;;;;;;;14.05;6.32;;;;;;;24.09;82.14;98058.56;5052534;28;20028;-78
2021/07/27 08:42:04;;;;;;;12.05;6.88;;;;;;;23.98;84.61;98057.63;5052805;28;20075;-78
2021/07/27 08:44:34;;;;;;;12.75;6.35;;;;;;;23.80;86.93;98059.41;5052130;28;20473;-78
2021/07/27 08:47:01;;;;;;;21.20;9.82;;;;;;;23.76;85.73;98058.56;5052206;28;20029;-77
2021/07/27 08:49:29;;;;;;;13.43;7.40;;;;;;;23.63;85.69;98062.75;5052336;28;20489;-77
2021/07/27 08:51:54;;;;;;;11.68;7.35;;;;;;;23.58;85.94;98065.91;5050429;28;20025;-77
2021/07/27 08:54:20;;;;;;;10.95;6.57;;;;;;;23.31;85.33;98051.09;5051739;28;20035;-77
2021/07/27 08:56:50;;;;;;;19.08;8.13;;;;;;;23.16;88.88;98060.44;5050758;28;20477;-78
2021/07/27 08:59:16;;;;;;;12.45;6.70;;;;;;;23.20;89.19;98067.72;5051769;28;20104;-77
2021/07/27 09:01:43;;;;;;;12.40;6.78;;;;;;;23.43;88.69;98085.22;5051800;28;20021;-77
2021/07/27 09:04:08;;;;;;;20.45;7.10;;;;;;;23.44;89.17;98100.00;5051639;28;20053;-77
2021/07/27 09:06:34;;;;;;;17.63;7.93;;;;;;;23.68;88.93;98109.94;5050834;28;20039;-78
2021/07/27 09:09:10;;;;;;;13.05;7.43;;;;;;;23.82;89.87;98121.31;5051268;28;20049;-78
2021/07/27 09:11:46;;;;;;;;;;;;;;;24.17;87.05;98129.38;5052150;28;20132;-78
2021/07/27 09:14:21;;;;;;;24.63;6.83;;;;;;;24.22;86.47;98120.66;5050151;28;20434;-78
2021/07/27 09:16:48;;;;;;;14.98;5.97;;;;;;;24.28;86.94;98116.31;5051924;28;20025;-78
2021/07/27 09:19:14;;;;;;;15.90;6.70;;;;;;;24.22;85.84;98118.66;5049677;28;20102;-76
2021/07/27 09:21:42;;;;;;;10.68;6.10;;;;;;;24.18;85.81;98098.25;5051419;28;20021;-77
2021/07/27 09:24:20;;;;;;;10.65;5.63;;;;;;;23.72;87.24;98094.00;5050879;28;20115;-77
2021/07/27 09:27:00;;;;;;;12.85;5.75;;;;;;;23.71;86.45;98096.00;5050285;28;20035;-78
2021/07/27 09:29:29;;;;;;;11.93;5.78;;;;;;;23.07;84.90;98085.84;5049854;28;20025;-79
2021/07/27 09:31:59;;;;;;;10.60;5.95;;;;;;;23.15;87.54;98081.97;5051284;28;20025;-77
2021/07/27 09:34:26;;;;;;;12.18;5.90;;;;;;;23.10;90.21;98073.94;5049410;28;20021;-77
2021/07/27 09:37:06;;;;;;;7.43;5.05;;;;;;;22.93;89.02;98077.22;5051509;28;21116;-78
2021/07/27 09:39:33;;;;;;;8.98;5.03;;;;;;;22.89;88.36;98088.34;5049593;28;20104;-79
2021/07/27 09:42:03;;;;;;;11.27;5.10;;;;;;;22.90;89.91;98105.88;5050842;28;20029;-78
2021/07/27 09:44:30;;;;;;;16.00;6.63;;;;;;;22.86;90.86;98113.41;5049695;28;20054;-78
2021/07/27 09:47:01;;;;;;;7.22;5.13;;;;;;;22.98;90.68;98131.94;5049491;28;20401;-78
2021/07/27 09:49:27;;;;;;;7.45;4.75;;;;;;;23.12;90.68;98130.16;5050953;28;20111;-79
2021/07/27 09:51:53;;;;;;;11.13;5.18;;;;;;;23.45;89.93;98130.34;5050999;28;20032;-78
2021/07/27 09:54:21;;;;;;;9.38;5.10;;;;;;;23.60;88.73;98130.56;5050885;28;20037;-79
2021/07/27 09:56:47;;;;;;;15.15;5.55;;;;;;;23.75;87.95;98127.59;5051262;28;20025;-79
2021/07/27 09:59:16;;;;;;;8.15;5.95;;;;;;;23.84;88.66;98125.31;5051367;28;20036;-78
2021/07/27 10:02:06;;;;;;;11.27;5.53;;;;;;;24.23;86.43;98120.28;5049694;28;20100;-78
2021/07/27 10:04:38;;;;;;;9.57;4.70;;;;;;;24.18;86.99;98131.00;5049293;28;20056;-77
2021/07/27 10:07:07;;;;;;;11.63;4.95;;;;;;;24.25;87.24;98134.69;5049132;28;20025;-77
2021/07/27 10:09:34;;;;;;;13.73;5.10;;;;;;;24.06;89.22;98125.63;5050291;28;20067;-77
2021/07/27 10:12:08;;;;;;;10.40;5.55;;;;;;;23.68;89.21;98110.72;5049480;28;20029;-80
2021/07/27 10:14:51;;;;;;;9.95;4.97;;;;;;;23.28;90.54;98104.91;5049594;28;20033;-78
2021/07/27 10:17:17;;;;;;;16.63;6.47;;;;;;;23.15;92.27;98112.69;5049168;28;20038;-77
2021/07/27 10:19:50;;;;;;;13.70;5.97;;;;;;;23.41;92.64;98117.50;5049666;28;20025;-77
2021/07/27 10:22:16;;;;;;;15.50;6.53;;;;;;;23.47;92.65;98118.78;5050218;28;20041;-77
2021/07/27 10:24:44;;;;;;;8.57;5.95;;;;;;;23.45;91.67;98123.97;5048998;28;20041;-78
2021/07/27 10:27:18;;;;;;;11.27;5.63;;;;;;;23.25;93.29;98098.09;5049486;28;20025;-78
2021/07/27 10:29:44;;;;;;;12.35;5.78;;;;;;;23.37;92.40;98095.09;5049321;28;20063;-79
2021/07/27 10:32:23;;;;;;;9.00;5.13;;;;;;;23.48;90.94;98088.88;5049352;28;20021;-78
2021/07/27 10:34:52;;;;;;;7.78;5.05;;;;;;;23.72;88.59;98094.81;5050627;28;20091;-77
2021/07/27 10:37:18;;;;;;;10.05;5.20;;;;;;;23.97;85.51;98092.34;5049289;28;20037;-77
2021/07/27 10:39:53;;;;;;;11.38;4.85;;;;;;;24.56;83.49;98104.69;5050242;28;20045;-77
2021/07/27 10:42:20;;;;;;;5.90;3.65;;;;;;;24.70;79.92;98116.00;5049525;28;20033;-78
2021/07/27 10:44:48;;;;;;;6.85;4.03;;;;;;;24.98;80.87;98105.09;5049238;28;20069;-78
2021/07/27 10:47:24;;;;;;;9.43;4.18;;;;;;;25.35;77.19;98114.22;5049071;28;20112;-77
2021/07/27 10:50:07;;;;;;;11.93;4.95;;;;;;;25.55;75.86;98112.81;5049990;28;20518;-77
2021/07/27 10:52:34;;;;;;;8.88;3.92;;;;;;;25.17;75.38;98118.88;5049771;28;20044;-77
2021/07/27 10:55:00;;;;;;;10.48;4.47;;;;;;;25.68;76.18;98120.88;5051761;28;20033;-77
2021/07/27 10:57:35;;;;;;;8.32;4.43;;;;;;;25.92;73.60;98128.63;5049979;28;20048;-76
2021/07/27 11:00:02;;;;;;;7.35;3.70;;;;;;;26.15;70.84;98112.31;5050987;28;20547;-77
2021/07/27 11:02:27;;;;;;;5.07;3.47;;;;;;;26.51;67.99;98114.06;5051046;28;20025;-77
2021/07/27 11:04:52;;;;;;;9.65;4.15;;;;;;;27.27;66.12;98108.19;5049938;28;20025;-77
2021/07/27 11:07:19;;;;;;;9.80;4.30;;;;;;;27.79;64.98;98102.91;5050502;28;20088;-78
2021/07/27 11:09:48;;;;;;;11.35;3.78;;;;;;;27.79;65.51;98105.72;5051628;28;20081;-77
2021/07/27 11:12:34;;;;;;;13.82;3.72;;;;;;;28.22;61.03;98100.81;5050388;28;20128;-76
2021/07/27 11:15:08;;;;;;;10.05;3.20;;;;;;;28.74;57.08;98098.94;5050373;28;20055;-76
2021/07/27 11:17:38;;;;;;;5.28;2.88;;;;;;;28.78;57.71;98099.72;5050043;28;20053;-76
2021/07/27 11:20:06;;;;;;;6.93;3.17;;;;;;;29.15;55.89;98103.47;5051952;28;20111;-77
2021/07/27 11:22:33;;;;;;;7.93;3.10;;;;;;;29.44;54.10;98109.72;5051524;28;20037;-76
2021/07/27 11:24:58;;;;;;;7.63;2.20;;;;;;;29.46;53.15;98098.00;5052474;28;20025;-77
2021/07/27 11:27:31;;;;;;;5.53;2.10;;;;;;;29.64;52.79;98098.63;5053495;28;20087;-77
2021/07/27 11:29:59;;;;;;;5.43;2.50;;;;;;;29.34;53.21;98095.72;5053217;28;20049;-76
2021/07/27 11:32:35;;;;;;;8.35;3.45;;;;;;;29.61;52.33;98089.00;5051775;28;20028;-77
2021/07/27 11:35:00;;;;;;;5.95;2.47;;;;;;;30.07;51.19;98087.72;5053456;28;20508;-77
2021/07/27 11:37:26;;;;;;;7.57;3.05;;;;;;;30.71;50.88;98085.66;5051863;28;20029;-77
2021/07/27 11:39:52;;;;;;;9.45;3.35;;;;;;;30.84;48.75;98085.09;5053401;28;20129;-76
2021/07/27 11:42:28;;;;;;;7.95;2.95;;;;;;;31.36;47.12;98086.28;5053129;28;20025;-77
2021/07/27 11:44:54;;;;;;;5.60;3.70;;;;;;;30.10;51.25;98081.25;5051917;28;20029;-78